• Join FlightAware (Why Join?)
  • Login
  • US Flag 
05:56PM EDT


 

Airport Tracker/Info


-or-


 

Live Flight TrackerFlight Track Log ✈ SKW4664 ✈ 07-Jun-2013 ✈ KMSP - KFSD

Flight Track Log - Related Links

Times and Time Zones

All times are in EDT time to prevent confusion due to time zone crossing. See the SKW4664 flight status page for this flight to view local times or setup timezone preferences in your user account.

Time Position Orientation Groundspeed Altitude Reporting Facility
EDT Latitude Longitude Course Direction KTS MPH feet Rate Location/Type
10:42AM 44.9000 -93.2833 235° Southwest 172 198 2,700  Level Minneapolis TRACON
10:42AM 44.8992 -93.3106 268° West 194 223 3,700 2,640 Climbing Minneapolis Center
10:43AM 44.8906 -93.3939 262° West 217 250 6,700 2,220 Climbing Minneapolis Center
10:44AM 44.6748 -93.6505 235° Southwest  Level FlightAware Approximate
10:44AM 44.8689 -93.4892 252° West 268 308 8,400  Level Minneapolis Center
10:45AM 44.6013 -93.7974 235° Southwest  Level FlightAware Approximate
10:45AM 44.8036 -93.5861 227° Southwest 289 333 11,700  Level Minneapolis Center
10:46AM 44.5178 -93.9315 230° Southwest  Level FlightAware Approximate
10:47AM 44.4444 -94.0780 235° Southwest  Level FlightAware Approximate
10:47AM 44.7625 -93.6881 240° Southwest 307 353 14,400  Level Minneapolis Center
10:48AM 44.7231 -93.7939 242° Southwest 309 356 16,600 1,980 Climbing Minneapolis Center
10:49AM 44.6828 -93.9028 243° Southwest 315 362 18,600 1,380 Climbing Minneapolis Center
10:50AM 44.6400 -94.0183 243° Southwest 328 377 19,500 1,380 Climbing Minneapolis Center
10:51AM 44.5850 -94.1664 242° Southwest 354 407 21,500 1,200 Climbing Minneapolis Center
10:52AM 44.5375 -94.2925 242° Southwest 364 419 22,000 240 Climbing Minneapolis Center
10:53AM 44.4911 -94.4197 243° Southwest 367 422 22,000  Level Minneapolis Center
10:54AM 44.4442 -94.5456 242° Southwest 367 422 22,000  Level Minneapolis Center
10:55AM 44.3922 -94.6806 242° Southwest 366 421 22,000  Level Minneapolis Center
10:56AM 44.3456 -94.8056 242° Southwest 364 419 22,000  Level Minneapolis Center
10:57AM 44.2994 -94.9292 243° Southwest 361 415 22,000  Level Minneapolis Center
10:58AM 44.2511 -95.0539 242° Southwest 364 419 22,000  Level Minneapolis Center
10:59AM 44.1939 -95.2008 242° Southwest 361 415 22,000  Level Minneapolis Center
11:00AM 44.1458 -95.3250 242° Southwest 364 419 22,000  Level Minneapolis Center
11:01AM 44.0978 -95.4481 241° Southwest 363 418 22,000  Level Minneapolis Center
11:02AM 44.0494 -95.5711 241° Southwest 362 417 22,000  Level Minneapolis Center
11:03AM 44.0014 -95.6944 242° Southwest 362 417 22,000 -540 Level Minneapolis Center
11:04AM 43.9522 -95.8172 241° Southwest 363 418 21,000 -2,460 Descending Minneapolis Center
11:05AM 43.9028 -95.9450 242° Southwest 371 427 17,000 -4,260 Descending Minneapolis Center
11:06AM 43.8411 -96.1019 241° Southwest 381 438 12,300 -3,060 Descending Minneapolis Center
11:07AM 43.8058 -96.2278 249° West 362 417 10,700 -1,620 Descending Minneapolis Center
11:08AM 43.7761 -96.3311 248° West 321 369 9,000 -1,800 Descending Minneapolis Center
11:09AM 43.7486 -96.4303 249° West 296 341 7,000 -2,040 Descending Minneapolis Center
11:10AM 43.7222 -96.5272 249° West 282 325 4,900 -1,980 Descending Minneapolis Center
11:11AM 43.6964 -96.6197 249° West 271 312 3,000 -1,860 Descending Minneapolis Center